createdAt,value
2022-09-05T00:00:14.874Z,16.27
2022-09-05T00:02:48.792Z,16.27
2022-09-05T00:05:34.030Z,16.26
2022-09-05T00:08:11.411Z,16.13
2022-09-05T00:11:39.489Z,16.22
2022-09-05T00:13:44.815Z,16.19
2022-09-05T00:16:30.145Z,16.20
2022-09-05T00:24:33.003Z,16.23
2022-09-05T00:24:36.937Z,16.07
2022-09-05T00:25:31.412Z,15.82
2022-09-05T00:28:01.189Z,15.92
2022-09-05T00:31:50.793Z,15.91
2022-09-05T00:34:17.539Z,15.94
2022-09-05T00:36:45.735Z,15.94
2022-09-05T00:39:21.500Z,15.93
2022-09-05T00:41:51.408Z,15.99
2022-09-05T00:44:26.483Z,15.87
2022-09-05T00:47:01.905Z,15.93
2022-09-05T00:49:38.664Z,16.08
2022-09-05T00:52:28.003Z,16.09
2022-09-05T00:55:37.876Z,15.98
2022-09-05T00:58:34.030Z,15.84
2022-09-05T01:01:12.085Z,15.81
2022-09-05T01:03:53.812Z,15.82
2022-09-05T01:06:30.672Z,15.93
2022-09-05T01:09:24.938Z,15.74
2022-09-05T01:12:06.776Z,15.77
2022-09-05T01:14:58.612Z,15.75
2022-09-05T01:17:37.358Z,15.72
2022-09-05T01:20:18.491Z,15.62
2022-09-05T01:23:08.525Z,15.75
2022-09-05T01:26:17.640Z,15.70
2022-09-05T01:29:18.775Z,15.78
2022-09-05T01:32:20.928Z,15.72
2022-09-05T01:34:56.052Z,15.72
2022-09-05T01:37:46.794Z,15.62
2022-09-05T01:40:26.906Z,15.76
2022-09-05T01:43:25.632Z,15.71
2022-09-05T01:46:22.259Z,15.70
2022-09-05T01:49:08.860Z,15.57
2022-09-05T01:52:00.590Z,15.69
2022-09-05T01:55:01.266Z,15.59
2022-09-05T01:57:40.673Z,15.68
2022-09-05T02:00:47.297Z,15.54
2022-09-05T02:03:19.416Z,15.44
2022-09-05T02:06:24.552Z,15.51
2022-09-05T02:09:10.244Z,15.47
2022-09-05T02:11:57.538Z,15.43
2022-09-05T02:15:16.570Z,15.48
2022-09-05T02:17:50.667Z,15.48
2022-09-05T02:20:43.811Z,15.34
2022-09-05T02:23:40.244Z,15.29
2022-09-05T02:26:18.062Z,15.40
2022-09-05T02:29:00.173Z,15.39
2022-09-05T02:31:47.880Z,15.40
2022-09-05T02:34:46.490Z,15.41
2022-09-05T02:39:05.435Z,15.37
2022-09-05T02:45:09.339Z,15.25
2022-09-05T02:45:18.371Z,15.27
2022-09-05T02:47:22.695Z,15.33
2022-09-05T02:52:19.857Z,15.26
2022-09-05T02:57:29.755Z,15.29
2022-09-05T02:57:41.152Z,15.24
2022-09-05T02:59:36.136Z,15.39
2022-09-05T03:02:31.093Z,15.32
2022-09-05T03:05:20.511Z,15.22
2022-09-05T03:08:07.744Z,15.20
2022-09-05T03:10:55.683Z,15.25
2022-09-05T03:13:54.346Z,15.27
2022-09-05T03:16:47.136Z,15.26
2022-09-05T03:19:56.888Z,15.34
2022-09-05T03:22:56.849Z,15.24
2022-09-05T03:25:35.350Z,15.20
2022-09-05T03:28:08.009Z,15.28
2022-09-05T03:30:52.939Z,15.27
2022-09-05T03:33:54.256Z,15.22
2022-09-05T03:37:00.877Z,15.24
2022-09-05T03:39:39.550Z,15.22
2022-09-05T03:42:31.325Z,15.20
2022-09-05T03:45:29.854Z,15.24
2022-09-05T03:48:33.586Z,15.20
2022-09-05T03:57:04.925Z,15.20
2022-09-05T03:57:17.819Z,15.08
2022-09-05T03:57:47.940Z,15.11
2022-09-05T04:00:25.881Z,15.14
2022-09-05T04:07:04.966Z,15.11
2022-09-05T04:08:16.454Z,15.08
2022-09-05T04:09:05.825Z,15.06
2022-09-05T04:11:40.002Z,15.16
2022-09-05T04:14:22.624Z,15.17
2022-09-05T04:16:53.498Z,15.12
2022-09-05T04:19:24.072Z,15.04
2022-09-05T04:22:19.877Z,14.98
2022-09-05T04:25:04.469Z,15.00
2022-09-05T04:28:02.177Z,15.18
2022-09-05T04:30:44.189Z,14.99
2022-09-05T04:33:36.965Z,14.96
2022-09-05T04:36:23.774Z,15.03
2022-09-05T04:39:09.670Z,15.07
2022-09-05T04:41:43.042Z,15.17
2022-09-05T04:44:17.254Z,15.12
2022-09-05T04:46:53.694Z,15.10
2022-09-05T04:49:29.186Z,15.09
2022-09-05T04:52:31.485Z,15.16
2022-09-05T04:55:01.448Z,15.24
2022-09-05T04:57:53.678Z,15.25
2022-09-05T05:05:58.908Z,15.36
2022-09-05T05:06:14.075Z,15.40
2022-09-05T05:06:45.376Z,15.34
2022-09-05T05:09:39.137Z,15.29
2022-09-05T05:17:53.679Z,15.26
2022-09-05T05:18:09.412Z,15.35
2022-09-05T05:18:39.651Z,15.45
2022-09-05T05:21:08.141Z,15.46
2022-09-05T05:23:39.926Z,15.54
2022-09-05T05:26:18.680Z,15.59
2022-09-05T05:29:09.969Z,15.62
2022-09-05T05:31:40.622Z,15.70
2022-09-05T05:34:24.614Z,15.80
2022-09-05T05:37:22.912Z,15.86
2022-09-05T05:40:07.310Z,15.98
2022-09-05T05:42:35.553Z,15.92
2022-09-05T05:45:02.813Z,16.07
2022-09-05T05:47:35.470Z,16.10
2022-09-05T05:50:11.437Z,16.24
2022-09-05T05:52:51.008Z,16.21
2022-09-05T05:55:52.845Z,16.38
2022-09-05T05:58:44.108Z,16.28
2022-09-05T06:01:38.877Z,16.47
2022-09-05T06:04:44.781Z,16.46
2022-09-05T06:07:25.469Z,16.64
2022-09-05T06:14:49.842Z,16.63
2022-09-05T06:15:04.095Z,16.60
2022-09-05T06:16:27.452Z,16.77
2022-09-05T06:19:00.030Z,16.88
2022-09-05T06:22:10.315Z,16.91
2022-09-05T06:25:17.206Z,17.00
2022-09-05T06:28:19.044Z,17.11
2022-09-05T06:30:57.195Z,17.09
2022-09-05T06:34:04.084Z,17.27
2022-09-05T06:36:58.085Z,17.40
2022-09-05T06:39:58.655Z,17.59
2022-09-05T06:42:52.341Z,17.63
2022-09-05T06:45:40.061Z,17.74
2022-09-05T06:48:46.045Z,17.72
2022-09-05T06:51:49.473Z,17.75
2022-09-05T06:54:48.577Z,17.65
2022-09-05T06:57:54.928Z,17.59
2022-09-05T07:00:27.051Z,17.63
2022-09-05T07:03:00.586Z,17.65
2022-09-05T07:05:40.018Z,17.54
2022-09-05T07:08:36.262Z,17.53
2022-09-05T07:11:35.645Z,17.56
2022-09-05T07:14:30.278Z,17.52
2022-09-05T07:17:16.847Z,17.57
2022-09-05T07:19:49.704Z,17.61
2022-09-05T07:22:47.058Z,17.77
2022-09-05T07:25:18.381Z,17.92
2022-09-05T07:28:26.552Z,18.17
2022-09-05T07:30:52.025Z,18.41
2022-09-05T07:33:20.821Z,18.49
2022-09-05T07:35:50.498Z,18.82
2022-09-05T07:38:50.229Z,18.85
2022-09-05T07:41:26.935Z,18.78
2022-09-05T07:44:09.109Z,18.72
2022-09-05T07:46:38.797Z,18.78
2022-09-05T07:49:09.877Z,18.93
2022-09-05T07:56:49.662Z,19.03
2022-09-05T07:57:01.149Z,19.10
2022-09-05T07:57:30.675Z,19.15
2022-09-05T08:00:06.584Z,19.39
2022-09-05T08:02:33.508Z,19.46
2022-09-05T08:05:05.841Z,19.62
2022-09-05T08:07:48.994Z,19.60
2022-09-05T08:10:35.673Z,19.82
2022-09-05T08:13:36.335Z,19.92
2022-09-05T08:16:10.421Z,19.96
2022-09-05T08:19:33.170Z,20.06
2022-09-05T08:22:02.725Z,20.14
2022-09-05T08:24:42.495Z,20.31
2022-09-05T08:27:26.368Z,20.35
2022-09-05T08:30:25.910Z,20.38
2022-09-05T08:33:10.476Z,20.53
2022-09-05T08:35:45.088Z,20.69
2022-09-05T08:38:14.764Z,20.87
2022-09-05T08:41:17.500Z,20.64
2022-09-05T08:46:36.135Z,20.74
2022-09-05T08:47:20.649Z,20.89
2022-09-05T08:50:27.038Z,20.93
2022-09-05T08:53:26.822Z,20.98
2022-09-05T08:56:13.313Z,21.21
2022-09-05T08:59:28.391Z,21.41
2022-09-05T09:02:47.207Z,21.51
2022-09-05T09:05:16.095Z,21.88
2022-09-05T09:07:53.653Z,21.95
2022-09-05T09:10:31.647Z,22.02
2022-09-05T09:13:12.626Z,22.27
2022-09-05T09:15:52.479Z,22.34
2022-09-05T09:18:21.466Z,22.59
2022-09-05T09:20:59.635Z,22.66
2022-09-05T09:23:49.468Z,22.26
2022-09-05T09:26:24.662Z,22.38
2022-09-05T09:29:08.206Z,22.58
2022-09-05T09:31:43.668Z,22.68
2022-09-05T09:34:36.691Z,22.87
2022-09-05T09:37:14.936Z,23.07
2022-09-05T09:40:09.444Z,22.99
2022-09-05T09:43:06.918Z,23.10
2022-09-05T09:46:11.685Z,23.09
2022-09-05T09:48:54.026Z,22.78
2022-09-05T09:51:30.443Z,22.92
2022-09-05T09:54:06.022Z,22.94
2022-09-05T09:57:01.821Z,22.92
2022-09-05T09:59:54.777Z,22.93
2022-09-05T10:06:28.768Z,22.90
2022-09-05T10:10:38.496Z,22.79
2022-09-05T10:10:54.449Z,22.93
2022-09-05T10:11:54.729Z,22.99
2022-09-05T10:15:31.547Z,23.20
2022-09-05T10:18:05.602Z,23.27
2022-09-05T10:20:49.690Z,23.32
2022-09-05T10:23:57.947Z,23.38
2022-09-05T10:27:02.127Z,23.46
2022-09-05T10:29:52.681Z,23.38
2022-09-05T10:35:11.368Z,23.54
2022-09-05T10:35:34.137Z,23.48
2022-09-05T10:38:20.538Z,23.48
2022-09-05T10:41:20.128Z,23.67
2022-09-05T10:43:50.853Z,23.71
2022-09-05T10:46:46.655Z,23.76
2022-09-05T10:49:08.316Z,24.08
2022-09-05T10:51:45.208Z,24.01
2022-09-05T10:54:21.548Z,23.96
2022-09-05T10:57:16.756Z,24.08
2022-09-05T11:02:21.457Z,23.93
2022-09-05T11:02:56.171Z,23.96
2022-09-05T11:05:38.550Z,24.03
2022-09-05T11:08:12.713Z,23.93
2022-09-05T11:11:01.305Z,23.95
2022-09-05T11:13:50.817Z,24.04
2022-09-05T11:16:35.394Z,24.07
2022-09-05T11:19:07.493Z,24.12
2022-09-05T11:21:48.711Z,24.03
2022-09-05T11:24:29.990Z,23.81
2022-09-05T11:27:24.899Z,23.90
2022-09-05T11:30:10.309Z,23.93
2022-09-05T11:39:46.454Z,23.73
2022-09-05T11:39:47.457Z,23.49
2022-09-05T11:40:24.933Z,23.46
2022-09-05T11:41:57.470Z,23.32
2022-09-05T11:44:36.127Z,23.31
2022-09-05T11:47:44.432Z,23.41
2022-09-05T11:50:29.809Z,22.94
2022-09-05T11:53:33.991Z,22.89
2022-09-05T11:56:31.564Z,22.77
2022-09-05T11:59:32.831Z,22.75
2022-09-05T12:02:26.556Z,22.83
2022-09-05T12:05:49.246Z,22.62
2022-09-05T12:08:28.688Z,22.60
2022-09-05T12:11:06.852Z,22.64
2022-09-05T12:13:42.838Z,22.61
2022-09-05T12:16:47.078Z,22.54
2022-09-05T12:19:22.939Z,22.51
2022-09-05T12:22:09.850Z,22.57
2022-09-05T12:27:36.722Z,22.75
2022-09-05T12:29:27.809Z,22.66
2022-09-05T12:33:07.489Z,22.66
2022-09-05T12:36:07.310Z,22.46
2022-09-05T12:40:44.685Z,22.59
2022-09-05T12:41:37.925Z,22.47
2022-09-05T12:43:23.730Z,22.62
2022-09-05T12:45:37.090Z,22.55
2022-09-05T12:48:39.272Z,22.39
2022-09-05T12:51:46.376Z,22.53
2022-09-05T12:54:27.892Z,22.13
2022-09-05T13:02:55.168Z,22.04
2022-09-05T13:03:05.379Z,21.74
2022-09-05T13:03:28.773Z,21.49
2022-09-05T13:06:11.584Z,21.22
2022-09-05T13:09:01.585Z,20.98
2022-09-05T13:14:54.223Z,21.14
2022-09-05T13:15:01.807Z,20.90
2022-09-05T13:17:30.462Z,20.95
2022-09-05T13:19:58.487Z,21.10
2022-09-05T13:22:26.378Z,21.06
2022-09-05T13:25:08.411Z,21.31
2022-09-05T13:27:41.331Z,21.15
2022-09-05T13:35:22.373Z,21.36
2022-09-05T13:38:10.928Z,21.23
2022-09-05T13:38:30.590Z,21.14
2022-09-05T13:39:14.574Z,21.08
2022-09-05T13:41:51.023Z,21.01
2022-09-05T13:44:26.208Z,21.05
2022-09-05T13:46:58.144Z,20.98
2022-09-05T13:49:32.376Z,21.00
2022-09-05T13:52:20.993Z,20.90
2022-09-05T13:54:52.311Z,20.98
2022-09-05T13:57:31.640Z,20.91
2022-09-05T14:00:28.207Z,21.08
2022-09-05T14:03:39.037Z,21.23
2022-09-05T14:06:46.645Z,21.41
2022-09-05T14:09:38.520Z,21.45
2022-09-05T14:12:17.648Z,21.03
2022-09-05T14:15:10.872Z,20.81
2022-09-05T14:18:00.339Z,20.94
2022-09-05T14:20:52.007Z,20.86
2022-09-05T14:23:22.618Z,20.90
2022-09-05T14:26:02.825Z,21.14
2022-09-05T14:28:34.099Z,21.24
2022-09-05T14:33:48.834Z,21.15
2022-09-05T14:37:48.904Z,21.45
2022-09-05T14:37:51.594Z,21.65
2022-09-05T14:40:35.433Z,22.00
2022-09-05T14:43:26.761Z,21.85
2022-09-05T14:46:14.315Z,21.94
2022-09-05T14:49:18.452Z,22.15
2022-09-05T14:51:51.757Z,22.19
2022-09-05T15:02:41.866Z,21.69
2022-09-05T15:03:00.298Z,21.54
2022-09-05T15:03:09.106Z,21.83
2022-09-05T15:05:46.041Z,21.45
2022-09-05T15:11:20.324Z,20.94
2022-09-05T15:12:24.223Z,20.54
2022-09-05T15:14:04.792Z,20.76
2022-09-05T15:16:38.079Z,20.77
2022-09-05T15:19:04.830Z,20.84
2022-09-05T15:21:35.269Z,21.11
2022-09-05T15:24:15.779Z,21.11
2022-09-05T15:27:02.631Z,21.33
2022-09-05T15:29:34.101Z,21.58
2022-09-05T15:32:22.634Z,21.61
2022-09-05T15:34:50.498Z,21.75
2022-09-05T15:37:40.579Z,21.80
2022-09-05T15:40:23.396Z,21.72
2022-09-05T15:42:54.962Z,21.88
2022-09-05T15:45:47.014Z,22.00
2022-09-05T15:48:22.075Z,22.05
2022-09-05T15:50:53.035Z,21.91
2022-09-05T15:53:29.327Z,22.11
2022-09-05T15:56:14.031Z,22.15
2022-09-05T15:58:53.762Z,22.07
2022-09-05T16:01:58.261Z,22.07
2022-09-05T16:08:56.814Z,22.20
2022-09-05T16:10:39.838Z,21.96
2022-09-05T16:10:49.989Z,22.02
2022-09-05T16:13:06.574Z,21.96
2022-09-05T16:21:09.625Z,21.99
2022-09-05T16:23:13.513Z,22.11
2022-09-05T16:23:25.130Z,22.05
2022-09-05T16:24:35.026Z,22.23
2022-09-05T16:27:37.113Z,22.20
2022-09-05T16:30:12.046Z,22.12
2022-09-05T16:32:50.952Z,22.23
2022-09-05T16:35:25.064Z,22.28
2022-09-05T16:38:24.187Z,22.27
2022-09-05T16:41:05.764Z,22.23
2022-09-05T16:43:37.680Z,22.27
2022-09-05T16:46:17.056Z,22.11
2022-09-05T16:49:02.431Z,21.94
2022-09-05T16:51:50.288Z,21.61
2022-09-05T16:54:38.526Z,21.57
2022-09-05T16:57:17.502Z,21.52
2022-09-05T16:59:45.725Z,21.46
2022-09-05T17:02:29.129Z,21.46
2022-09-05T17:05:25.689Z,21.34
2022-09-05T17:08:04.226Z,21.16
2022-09-05T17:10:43.877Z,21.07
2022-09-05T17:13:33.384Z,21.00
2022-09-05T17:16:03.095Z,20.94
2022-09-05T17:18:35.926Z,20.77
2022-09-05T17:23:22.274Z,20.71
2022-09-05T17:29:25.142Z,20.63
2022-09-05T17:29:49.042Z,20.50
2022-09-05T17:31:48.975Z,20.50
2022-09-05T17:33:44.699Z,20.43
2022-09-05T17:36:51.563Z,20.24
2022-09-05T17:39:53.900Z,20.21
2022-09-05T17:42:26.253Z,20.07
2022-09-05T17:45:12.929Z,19.98
2022-09-05T17:47:53.790Z,20.02
2022-09-05T17:50:45.200Z,19.93
2022-09-05T17:53:26.759Z,19.79
2022-09-05T17:55:55.036Z,19.73
2022-09-05T17:58:48.978Z,19.75
2022-09-05T18:01:27.115Z,19.61
2022-09-05T18:04:16.495Z,19.55
2022-09-05T18:09:41.263Z,19.48
2022-09-05T18:13:12.631Z,19.37
2022-09-05T18:15:38.886Z,19.35
2022-09-05T18:18:28.585Z,19.38
2022-09-05T18:21:21.193Z,19.23
2022-09-05T18:23:54.296Z,19.15
2022-09-05T18:26:24.543Z,19.15
2022-09-05T18:29:00.219Z,19.11
2022-09-05T18:31:41.851Z,19.06
2022-09-05T18:34:21.130Z,19.00
2022-09-05T18:36:49.366Z,18.97
2022-09-05T18:39:28.006Z,19.00
2022-09-05T18:42:25.478Z,18.96
2022-09-05T18:44:53.150Z,18.91
2022-09-05T18:47:53.348Z,18.94
2022-09-05T18:50:29.230Z,18.82
2022-09-05T18:53:09.395Z,18.84
2022-09-05T18:56:10.115Z,18.82
2022-09-05T18:58:34.311Z,18.75
2022-09-05T19:01:20.530Z,18.74
2022-09-05T19:03:52.339Z,18.67
2022-09-05T19:06:36.249Z,18.72
2022-09-05T19:09:14.053Z,18.67
2022-09-05T19:12:34.544Z,18.63
2022-09-05T19:14:59.831Z,18.47
2022-09-05T19:17:46.969Z,18.57
2022-09-05T19:20:32.803Z,18.46
2022-09-05T19:23:13.293Z,18.50
2022-09-05T19:25:52.126Z,18.51
2022-09-05T19:36:44.206Z,18.41
2022-09-05T19:36:54.260Z,18.27
2022-09-05T19:37:03.435Z,18.34
2022-09-05T19:37:32.839Z,18.26
2022-09-05T19:43:02.583Z,18.33
2022-09-05T19:47:26.645Z,18.27
2022-09-05T19:47:34.345Z,18.41
2022-09-05T19:48:27.057Z,18.27
2022-09-05T19:50:56.456Z,18.28
2022-09-05T19:53:24.427Z,18.17
2022-09-05T19:55:53.700Z,18.16
2022-09-05T19:58:22.844Z,18.18
2022-09-05T20:01:05.939Z,18.02
2022-09-05T20:03:38.621Z,18.05
2022-09-05T20:06:29.961Z,18.12
2022-09-05T20:09:30.200Z,18.08
2022-09-05T20:11:58.918Z,18.03
2022-09-05T20:14:31.323Z,18.10
2022-09-05T20:17:17.054Z,18.02
2022-09-05T20:19:44.936Z,17.98
2022-09-05T20:22:47.663Z,17.97
2022-09-05T20:25:19.813Z,17.87
2022-09-05T20:27:59.760Z,17.87
2022-09-05T20:30:34.970Z,17.88
2022-09-05T20:33:16.375Z,17.83
2022-09-05T20:41:53.849Z,17.79
2022-09-05T20:43:18.294Z,17.75
2022-09-05T20:43:35.039Z,17.72
2022-09-05T20:44:22.957Z,17.83
2022-09-05T20:53:46.494Z,17.80
2022-09-05T20:54:15.605Z,17.75
2022-09-05T20:54:25.000Z,17.80
2022-09-05T20:55:41.388Z,17.74
2022-09-05T20:58:13.027Z,17.78
2022-09-05T21:01:19.861Z,17.67
2022-09-05T21:03:45.519Z,17.62
2022-09-05T21:06:25.915Z,17.57
2022-09-05T21:08:56.079Z,17.56
2022-09-05T21:11:31.606Z,17.49
2022-09-05T21:14:02.581Z,17.45
2022-09-05T21:16:33.021Z,17.53
2022-09-05T21:18:59.731Z,17.57
2022-09-05T21:21:31.768Z,17.41
2022-09-05T21:24:00.910Z,17.35
2022-09-05T21:26:42.660Z,17.34
2022-09-05T21:29:18.224Z,17.43
2022-09-05T21:31:54.713Z,17.31
2022-09-05T21:34:28.102Z,17.24
2022-09-05T21:37:07.927Z,17.26
2022-09-05T21:39:40.414Z,17.22
2022-09-05T21:44:10.535Z,17.23
2022-09-05T21:47:37.389Z,17.10
2022-09-05T21:47:56.516Z,17.10
2022-09-05T21:50:31.526Z,17.03
2022-09-05T21:54:21.055Z,17.04
2022-09-05T21:59:17.169Z,16.99
2022-09-05T21:59:20.589Z,16.95
2022-09-05T22:01:51.536Z,16.99
2022-09-05T22:04:10.981Z,16.90
2022-09-05T22:06:37.490Z,16.86
2022-09-05T22:09:13.125Z,16.86
2022-09-05T22:11:40.729Z,16.87
2022-09-05T22:14:09.079Z,16.80
2022-09-05T22:16:44.941Z,16.77
2022-09-05T22:19:12.626Z,16.81
2022-09-05T22:21:39.979Z,16.80
2022-09-05T22:24:10.878Z,16.72
2022-09-05T22:26:54.068Z,16.71
2022-09-05T22:29:34.523Z,16.68
2022-09-05T22:32:01.433Z,16.62
2022-09-05T22:34:30.897Z,16.62
2022-09-05T22:36:57.610Z,16.70
2022-09-05T22:39:36.490Z,16.62
2022-09-05T22:42:10.116Z,16.55
2022-09-05T22:44:37.366Z,16.48
2022-09-05T22:47:05.632Z,16.48
2022-09-05T22:49:32.361Z,16.49
2022-09-05T22:51:58.936Z,16.39
2022-09-05T22:54:25.551Z,16.39
2022-09-05T22:56:52.095Z,16.45
2022-09-05T22:59:18.617Z,16.40
2022-09-05T23:01:45.223Z,16.43
2022-09-05T23:04:11.796Z,16.37
2022-09-05T23:06:38.364Z,16.33
2022-09-05T23:09:04.921Z,16.26
2022-09-05T23:11:31.475Z,16.26
2022-09-05T23:13:57.996Z,16.22
2022-09-05T23:16:24.521Z,16.27
2022-09-05T23:18:51.064Z,16.14
2022-09-05T23:21:17.620Z,16.21
2022-09-05T23:23:44.136Z,16.13
2022-09-05T23:26:12.510Z,16.10
2022-09-05T23:28:43.091Z,16.08
2022-09-05T23:31:11.334Z,15.94
2022-09-05T23:33:41.599Z,15.99
2022-09-05T23:36:10.277Z,15.91
2022-09-05T23:38:36.847Z,15.93
2022-09-05T23:41:09.737Z,15.86
2022-09-05T23:43:36.578Z,15.87
2022-09-05T23:46:04.175Z,15.78
2022-09-05T23:48:31.114Z,15.70
2022-09-05T23:51:03.840Z,15.75
2022-09-05T23:53:30.402Z,15.76
2022-09-05T23:56:01.376Z,15.73
2022-09-05T23:58:29.561Z,15.72
